Terminal Aerodrome Forecast
Issued by NWS Amarillo, TX

Home | Current Version | Previous Version | Text Only | Print | Product List | Glossary On
Versions: 1 2 3 4 5 6 7 8 9 10 11 12 13 14
952
FTUS44 KAMA 241744
TAFDHT
TAF
KDHT 241744Z 2418/2518 26007KT P6SM SCT070
     FM242000 17009KT P6SM VCTS SCT090CB BKN300
     FM250300 06008KT P6SM SCT060 BKN300 PROB30 2503/2507 6SM -TSRA
      BKN050CB
     FM250800 VRB06KT P6SM SCT100 BKN300=

USA.gov is the U.S. government's official web portal to all federal, state and local government web resources and services.